sensor_id;sensor_type;location;lat;lon;timestamp;pressure;altitude;pressure_sealevel;temperature;humidity
63281;BME280;49406;51.044;3.766;2022-07-29T00:00:12;101754.05;;;17.23;63.75
63281;BME280;49406;51.044;3.766;2022-07-29T00:02:46;101751.80;;;17.18;63.92
63281;BME280;49406;51.044;3.766;2022-07-29T00:05:21;101748.98;;;17.17;63.95
63281;BME280;49406;51.044;3.766;2022-07-29T00:07:55;101749.17;;;17.14;64.03
63281;BME280;49406;51.044;3.766;2022-07-29T00:10:29;101752.88;;;17.13;64.07
63281;BME280;49406;51.044;3.766;2022-07-29T00:13:04;101751.80;;;17.11;64.08
63281;BME280;49406;51.044;3.766;2022-07-29T00:15:38;101747.21;;;17.10;64.25
63281;BME280;49406;51.044;3.766;2022-07-29T00:18:13;101746.88;;;17.09;64.16
63281;BME280;49406;51.044;3.766;2022-07-29T00:20:47;101744.41;;;17.07;64.71
63281;BME280;49406;51.044;3.766;2022-07-29T00:23:22;101748.83;;;17.11;64.25
63281;BME280;49406;51.044;3.766;2022-07-29T00:25:56;101747.73;;;17.19;63.91
63281;BME280;49406;51.044;3.766;2022-07-29T00:28:31;101741.55;;;17.14;64.02
63281;BME280;49406;51.044;3.766;2022-07-29T00:31:05;101740.52;;;17.09;64.23
63281;BME280;49406;51.044;3.766;2022-07-29T00:33:41;101734.70;;;17.05;64.22
63281;BME280;49406;51.044;3.766;2022-07-29T00:36:15;101734.20;;;17.02;64.22
63281;BME280;49406;51.044;3.766;2022-07-29T00:45:59;101729.83;;;16.89;64.74
63281;BME280;49406;51.044;3.766;2022-07-29T00:48:33;101730.70;;;16.91;64.45
63281;BME280;49406;51.044;3.766;2022-07-29T00:51:08;101728.97;;;16.82;64.60
63281;BME280;49406;51.044;3.766;2022-07-29T00:53:43;101725.64;;;16.74;64.80
63281;BME280;49406;51.044;3.766;2022-07-29T00:56:19;101721.78;;;16.69;64.96
63281;BME280;49406;51.044;3.766;2022-07-29T00:58:55;101720.35;;;16.64;65.17
63281;BME280;49406;51.044;3.766;2022-07-29T01:01:30;101713.29;;;16.58;65.29
63281;BME280;49406;51.044;3.766;2022-07-29T01:04:06;101712.25;;;16.52;65.40
63281;BME280;49406;51.044;3.766;2022-07-29T01:06:41;101713.15;;;16.50;65.58
63281;BME280;49406;51.044;3.766;2022-07-29T01:09:17;101710.84;;;16.52;65.23
63281;BME280;49406;51.044;3.766;2022-07-29T01:11:52;101709.27;;;16.42;65.43
63281;BME280;49406;51.044;3.766;2022-07-29T01:14:28;101711.41;;;16.29;65.91
63281;BME280;49406;51.044;3.766;2022-07-29T01:17:16;101713.54;;;16.23;66.27
63281;BME280;49406;51.044;3.766;2022-07-29T01:19:58;101719.02;;;16.16;66.20
63281;BME280;49406;51.044;3.766;2022-07-29T01:22:49;101716.73;;;16.08;66.58
63281;BME280;49406;51.044;3.766;2022-07-29T01:25:38;101712.52;;;16.00;66.68
63281;BME280;49406;51.044;3.766;2022-07-29T01:28:40;101714.44;;;15.91;66.89
63281;BME280;49406;51.044;3.766;2022-07-29T01:31:22;101715.50;;;15.92;66.87
63281;BME280;49406;51.044;3.766;2022-07-29T01:34:03;101714.62;;;15.85;67.12
63281;BME280;49406;51.044;3.766;2022-07-29T01:36:45;101714.44;;;15.73;67.54
63281;BME280;49406;51.044;3.766;2022-07-29T01:39:26;101710.73;;;15.64;67.79
63281;BME280;49406;51.044;3.766;2022-07-29T01:42:09;101708.23;;;15.58;68.27
63281;BME280;49406;51.044;3.766;2022-07-29T01:44:50;101709.27;;;15.52;68.42
63281;BME280;49406;51.044;3.766;2022-07-29T01:47:33;101705.73;;;15.49;68.56
63281;BME280;49406;51.044;3.766;2022-07-29T01:50:13;101707.67;;;15.51;68.60
63281;BME280;49406;51.044;3.766;2022-07-29T01:52:54;101704.48;;;15.45;69.04
63281;BME280;49406;51.044;3.766;2022-07-29T01:55:34;101700.95;;;15.36;69.32
63281;BME280;49406;51.044;3.766;2022-07-29T01:58:10;101699.19;;;15.31;69.76
63281;BME280;49406;51.044;3.766;2022-07-29T02:00:46;101697.05;;;15.26;69.77
63281;BME280;49406;51.044;3.766;2022-07-29T02:03:22;101696.52;;;15.22;70.13
63281;BME280;49406;51.044;3.766;2022-07-29T02:05:58;101697.77;;;15.29;69.74
63281;BME280;49406;51.044;3.766;2022-07-29T02:08:35;101695.98;;;15.24;69.94
63281;BME280;49406;51.044;3.766;2022-07-29T02:11:11;101692.64;;;15.15;70.55
63281;BME280;49406;51.044;3.766;2022-07-29T02:13:46;101692.95;;;15.09;70.52
63281;BME280;49406;51.044;3.766;2022-07-29T02:16:22;101692.77;;;15.04;70.74
63281;BME280;49406;51.044;3.766;2022-07-29T02:18:59;101693.27;;;14.98;70.93
63281;BME280;49406;51.044;3.766;2022-07-29T02:21:35;101691.34;;;14.99;70.80
63281;BME280;49406;51.044;3.766;2022-07-29T02:24:12;101688.52;;;14.97;70.75
63281;BME280;49406;51.044;3.766;2022-07-29T02:26:49;101690.06;;;14.88;71.42
63281;BME280;49406;51.044;3.766;2022-07-29T02:29:26;101691.25;;;14.78;71.63
63281;BME280;49406;51.044;3.766;2022-07-29T02:32:02;101694.73;;;14.71;71.96
63281;BME280;49406;51.044;3.766;2022-07-29T02:34:39;101696.13;;;14.65;72.25
63281;BME280;49406;51.044;3.766;2022-07-29T02:37:17;101695.08;;;14.66;72.23
63281;BME280;49406;51.044;3.766;2022-07-29T02:39:53;101690.69;;;14.69;72.37
63281;BME280;49406;51.044;3.766;2022-07-29T02:42:29;101688.54;;;14.62;72.61
63281;BME280;49406;51.044;3.766;2022-07-29T02:45:07;101686.38;;;14.53;73.03
63281;BME280;49406;51.044;3.766;2022-07-29T02:47:43;101686.36;;;14.49;73.38
63281;BME280;49406;51.044;3.766;2022-07-29T02:50:26;101685.98;;;14.44;73.50
63281;BME280;49406;51.044;3.766;2022-07-29T02:53:08;101683.48;;;14.44;73.61
63281;BME280;49406;51.044;3.766;2022-07-29T02:55:48;101686.37;;;14.50;73.39
63281;BME280;49406;51.044;3.766;2022-07-29T02:58:27;101686.83;;;14.42;73.87
63281;BME280;49406;51.044;3.766;2022-07-29T03:01:07;101688.52;;;14.35;74.17
63281;BME280;49406;51.044;3.766;2022-07-29T03:03:45;101693.77;;;14.29;74.13
63281;BME280;49406;51.044;3.766;2022-07-29T03:06:22;101693.58;;;14.26;74.44
63281;BME280;49406;51.044;3.766;2022-07-29T03:08:58;101690.10;;;14.34;74.12
63281;BME280;49406;51.044;3.766;2022-07-29T03:11:35;101687.80;;;14.30;74.31
63281;BME280;49406;51.044;3.766;2022-07-29T03:14:11;101691.60;;;14.21;74.57
63281;BME280;49406;51.044;3.766;2022-07-29T03:16:46;101692.63;;;14.17;75.04
63281;BME280;49406;51.044;3.766;2022-07-29T03:19:21;101695.09;;;14.16;75.19
63281;BME280;49406;51.044;3.766;2022-07-29T03:21:57;101692.98;;;14.17;74.95
63281;BME280;49406;51.044;3.766;2022-07-29T03:24:33;101692.66;;;14.22;74.74
63281;BME280;49406;51.044;3.766;2022-07-29T03:27:08;101690.88;;;14.18;74.86
63281;BME280;49406;51.044;3.766;2022-07-29T03:29:43;101695.77;;;14.11;75.29
63281;BME280;49406;51.044;3.766;2022-07-29T03:32:17;101693.27;;;14.07;75.95
63281;BME280;49406;51.044;3.766;2022-07-29T03:34:52;101693.95;;;14.05;75.75
63281;BME280;49406;51.044;3.766;2022-07-29T03:37:26;101698.86;;;14.04;75.96
63281;BME280;49406;51.044;3.766;2022-07-29T03:40:05;101702.45;;;14.12;75.67
63281;BME280;49406;51.044;3.766;2022-07-29T03:42:41;101705.58;;;14.08;75.51
63281;BME280;49406;51.044;3.766;2022-07-29T03:45:18;101702.52;;;13.97;76.00
63281;BME280;49406;51.044;3.766;2022-07-29T03:47:57;101704.02;;;13.91;76.34
63281;BME280;49406;51.044;3.766;2022-07-29T03:50:34;101702.58;;;13.85;76.61
63281;BME280;49406;51.044;3.766;2022-07-29T03:53:09;101702.39;;;13.82;76.64
63281;BME280;49406;51.044;3.766;2022-07-29T03:55:47;101701.54;;;13.86;76.46
63281;BME280;49406;51.044;3.766;2022-07-29T03:58:23;101700.98;;;13.81;76.65
63281;BME280;49406;51.044;3.766;2022-07-29T04:01:00;101703.86;;;13.72;77.12
63281;BME280;49406;51.044;3.766;2022-07-29T04:03:35;101706.62;;;13.64;77.45
63281;BME280;49406;51.044;3.766;2022-07-29T04:06:10;101709.86;;;13.56;77.80
63281;BME280;49406;51.044;3.766;2022-07-29T04:08:45;101710.38;;;13.54;78.03
63281;BME280;49406;51.044;3.766;2022-07-29T04:11:19;101715.71;;;13.61;77.84
63281;BME280;49406;51.044;3.766;2022-07-29T04:13:54;101713.73;;;13.57;77.84
63281;BME280;49406;51.044;3.766;2022-07-29T04:16:28;101714.18;;;13.47;78.44
63281;BME280;49406;51.044;3.766;2022-07-29T04:19:03;101712.69;;;13.40;78.86
63281;BME280;49406;51.044;3.766;2022-07-29T04:21:40;101711.59;;;13.35;79.14
63281;BME280;49406;51.044;3.766;2022-07-29T04:24:14;101710.14;;;13.30;79.28
63281;BME280;49406;51.044;3.766;2022-07-29T04:26:49;101711.45;;;13.38;79.40
63281;BME280;49406;51.044;3.766;2022-07-29T04:29:24;101708.99;;;13.39;79.48
63281;BME280;49406;51.044;3.766;2022-07-29T04:31:58;101716.34;;;13.35;79.94
63281;BME280;49406;51.044;3.766;2022-07-29T04:34:32;101716.15;;;13.34;80.26
63281;BME280;49406;51.044;3.766;2022-07-29T04:37:07;101718.80;;;13.35;80.32
63281;BME280;49406;51.044;3.766;2022-07-29T04:39:41;101720.07;;;13.39;80.41
63281;BME280;49406;51.044;3.766;2022-07-29T04:42:15;101719.30;;;13.50;80.14
63281;BME280;49406;51.044;3.766;2022-07-29T04:44:50;101725.13;;;13.53;80.18
63281;BME280;49406;51.044;3.766;2022-07-29T04:47:24;101729.69;;;13.53;80.33
63281;BME280;49406;51.044;3.766;2022-07-29T04:49:59;101726.20;;;13.56;80.52
63281;BME280;49406;51.044;3.766;2022-07-29T04:52:33;101728.03;;;13.62;80.52
63281;BME280;49406;51.044;3.766;2022-07-29T04:55:10;101729.69;;;13.70;80.43
63281;BME280;49406;51.044;3.766;2022-07-29T04:57:44;101731.95;;;13.87;79.92
63281;BME280;49406;51.044;3.766;2022-07-29T05:00:19;101734.33;;;13.95;79.87
63281;BME280;49406;51.044;3.766;2022-07-29T05:02:53;101738.05;;;14.00;79.94
63281;BME280;49406;51.044;3.766;2022-07-29T05:05:27;101740.55;;;14.06;79.73
63281;BME280;49406;51.044;3.766;2022-07-29T05:08:02;101746.78;;;14.14;79.63
63281;BME280;49406;51.044;3.766;2022-07-29T05:10:37;101750.08;;;14.32;79.21
63281;BME280;49406;51.044;3.766;2022-07-29T05:13:12;101746.30;;;14.43;78.58
63281;BME280;49406;51.044;3.766;2022-07-29T05:15:46;101747.77;;;14.47;78.62
63281;BME280;49406;51.044;3.766;2022-07-29T05:18:21;101748.14;;;14.52;78.65
63281;BME280;49406;51.044;3.766;2022-07-29T05:20:56;101746.09;;;14.61;78.50
63281;BME280;49406;51.044;3.766;2022-07-29T05:23:30;101745.99;;;14.78;78.52
63281;BME280;49406;51.044;3.766;2022-07-29T05:26:05;101745.64;;;15.15;77.87
63281;BME280;49406;51.044;3.766;2022-07-29T05:28:39;101746.43;;;15.47;76.78
63281;BME280;49406;51.044;3.766;2022-07-29T05:31:13;101745.80;;;15.64;76.10
63281;BME280;49406;51.044;3.766;2022-07-29T05:33:48;101748.63;;;15.74;75.65
63281;BME280;49406;51.044;3.766;2022-07-29T05:36:23;101756.23;;;15.84;75.23
63281;BME280;49406;51.044;3.766;2022-07-29T05:38:57;101756.60;;;16.04;74.84
63281;BME280;49406;51.044;3.766;2022-07-29T05:41:34;101751.80;;;16.45;74.29
63281;BME280;49406;51.044;3.766;2022-07-29T05:44:08;101750.29;;;16.96;72.87
63281;BME280;49406;51.044;3.766;2022-07-29T05:46:44;101750.23;;;17.44;71.47
63281;BME280;49406;51.044;3.766;2022-07-29T05:49:19;101754.34;;;17.96;70.48
63281;BME280;49406;51.044;3.766;2022-07-29T05:51:53;101750.48;;;18.52;69.08
63281;BME280;49406;51.044;3.766;2022-07-29T05:54:28;101751.64;;;19.07;67.63
63281;BME280;49406;51.044;3.766;2022-07-29T05:57:02;101756.80;;;19.61;65.74
63281;BME280;49406;51.044;3.766;2022-07-29T05:59:38;101755.98;;;20.01;64.03
63281;BME280;49406;51.044;3.766;2022-07-29T06:02:13;101755.33;;;20.30;62.30
63281;BME280;49406;51.044;3.766;2022-07-29T06:04:47;101751.27;;;20.50;61.13
63281;BME280;49406;51.044;3.766;2022-07-29T06:07:22;101755.92;;;20.76;60.61
63281;BME280;49406;51.044;3.766;2022-07-29T06:09:57;101760.23;;;21.09;59.31
63281;BME280;49406;51.044;3.766;2022-07-29T06:12:31;101760.44;;;21.25;58.25
63281;BME280;49406;51.044;3.766;2022-07-29T06:15:07;101767.59;;;21.48;57.42
63281;BME280;49406;51.044;3.766;2022-07-29T06:17:42;101772.44;;;21.70;56.82
63281;BME280;49406;51.044;3.766;2022-07-29T06:20:17;101773.75;;;21.89;55.67
63281;BME280;49406;51.044;3.766;2022-07-29T06:22:51;101771.30;;;21.95;54.88
63281;BME280;49406;51.044;3.766;2022-07-29T06:25:25;101773.06;;;21.96;54.71
63281;BME280;49406;51.044;3.766;2022-07-29T06:28:02;101772.27;;;22.08;53.25
63281;BME280;49406;51.044;3.766;2022-07-29T06:30:37;101776.55;;;21.99;53.62
63281;BME280;49406;51.044;3.766;2022-07-29T06:33:17;101778.48;;;22.09;53.47
63281;BME280;49406;51.044;3.766;2022-07-29T06:35:52;101781.55;;;22.28;53.22
63281;BME280;49406;51.044;3.766;2022-07-29T06:38:26;101784.02;;;22.50;52.60
63281;BME280;49406;51.044;3.766;2022-07-29T06:41:01;101780.56;;;22.66;51.95
63281;BME280;49406;51.044;3.766;2022-07-29T06:43:42;101779.52;;;22.72;51.55
63281;BME280;49406;51.044;3.766;2022-07-29T06:46:17;101780.44;;;22.84;50.58
63281;BME280;49406;51.044;3.766;2022-07-29T06:48:52;101782.80;;;22.88;50.78
63281;BME280;49406;51.044;3.766;2022-07-29T06:51:27;101783.06;;;23.11;49.98
63281;BME280;49406;51.044;3.766;2022-07-29T06:54:02;101784.81;;;23.12;49.74
63281;BME280;49406;51.044;3.766;2022-07-29T06:56:38;101779.89;;;23.16;49.75
63281;BME280;49406;51.044;3.766;2022-07-29T06:59:14;101783.67;;;23.39;49.31
63281;BME280;49406;51.044;3.766;2022-07-29T07:01:49;101785.98;;;23.57;49.23
63281;BME280;49406;51.044;3.766;2022-07-29T07:04:24;101793.23;;;23.77;48.09
63281;BME280;49406;51.044;3.766;2022-07-29T07:06:59;101794.79;;;23.73;48.32
63281;BME280;49406;51.044;3.766;2022-07-29T07:09:33;101795.84;;;23.67;47.15
63281;BME280;49406;51.044;3.766;2022-07-29T07:12:08;101796.42;;;23.42;47.19
63281;BME280;49406;51.044;3.766;2022-07-29T07:14:43;101796.71;;;23.38;47.84
63281;BME280;49406;51.044;3.766;2022-07-29T07:17:18;101799.39;;;23.56;48.09
63281;BME280;49406;51.044;3.766;2022-07-29T07:19:52;101802.17;;;23.82;47.81
63281;BME280;49406;51.044;3.766;2022-07-29T07:22:27;101809.00;;;24.08;46.95
63281;BME280;49406;51.044;3.766;2022-07-29T07:25:01;101811.17;;;24.02;46.54
63281;BME280;49406;51.044;3.766;2022-07-29T07:27:36;101811.31;;;24.14;47.09
63281;BME280;49406;51.044;3.766;2022-07-29T07:30:11;101812.77;;;24.41;46.48
63281;BME280;49406;51.044;3.766;2022-07-29T07:32:46;101808.36;;;24.59;46.09
63281;BME280;49406;51.044;3.766;2022-07-29T07:35:20;101805.97;;;24.81;45.69
63281;BME280;49406;51.044;3.766;2022-07-29T07:37:55;101804.24;;;25.00;45.09
63281;BME280;49406;51.044;3.766;2022-07-29T07:40:30;101807.54;;;25.08;44.78
63281;BME280;49406;51.044;3.766;2022-07-29T07:43:04;101805.52;;;25.24;44.80
63281;BME280;49406;51.044;3.766;2022-07-29T07:45:39;101809.38;;;25.39;44.34
63281;BME280;49406;51.044;3.766;2022-07-29T07:48:14;101809.85;;;25.46;43.85
63281;BME280;49406;51.044;3.766;2022-07-29T07:50:48;101809.66;;;25.46;43.64
63281;BME280;49406;51.044;3.766;2022-07-29T07:53:23;101803.70;;;25.47;43.40
63281;BME280;49406;51.044;3.766;2022-07-29T07:55:58;101802.09;;;25.57;43.43
63281;BME280;49406;51.044;3.766;2022-07-29T07:58:32;101804.37;;;25.63;43.01
63281;BME280;49406;51.044;3.766;2022-07-29T08:01:08;101801.65;;;25.64;43.26
63281;BME280;49406;51.044;3.766;2022-07-29T08:03:43;101801.11;;;25.69;43.08
